createdAt,value
2022-10-26T00:00:04.380Z,49.86
2022-10-26T00:01:04.397Z,49.72
2022-10-26T00:02:04.407Z,52.08
2022-10-26T00:03:04.374Z,49.29
2022-10-26T00:04:04.314Z,52.80
2022-10-26T00:05:04.227Z,54.63
2022-10-26T00:06:04.222Z,49.85
2022-10-26T00:07:04.193Z,51.73
2022-10-26T00:08:04.707Z,57.46
2022-10-26T00:09:04.232Z,56.58
2022-10-26T00:10:04.193Z,55.86
2022-10-26T00:11:04.164Z,57.01
2022-10-26T00:12:04.153Z,54.08
2022-10-26T00:13:04.267Z,48.87
2022-10-26T00:14:04.349Z,52.48
2022-10-26T00:15:04.227Z,51.42
2022-10-26T00:16:04.215Z,57.29
2022-10-26T00:17:04.268Z,54.05
2022-10-26T00:18:04.227Z,52.72
2022-10-26T00:19:04.278Z,62.68
2022-10-26T00:20:04.296Z,59.52
2022-10-26T00:21:04.187Z,53.32
2022-10-26T00:22:04.176Z,55.93
2022-10-26T00:23:04.232Z,52.97
2022-10-26T00:24:04.223Z,56.94
2022-10-26T00:25:04.204Z,54.14
2022-10-26T00:26:04.161Z,55.98
2022-10-26T00:27:04.136Z,58.83
2022-10-26T00:28:23.720Z,54.09
2022-10-26T00:29:04.146Z,58.36
2022-10-26T00:30:04.083Z,53.76
2022-10-26T00:31:04.049Z,57.36
2022-10-26T00:32:04.021Z,57.72
2022-10-26T00:33:04.185Z,54.52
2022-10-26T00:34:03.996Z,50.17
2022-10-26T00:35:11.851Z,49.01
2022-10-26T00:36:05.004Z,50.78
2022-10-26T00:37:04.150Z,56.03
2022-10-26T00:38:04.018Z,56.27
2022-10-26T00:39:04.035Z,50.10
2022-10-26T00:40:04.075Z,60.95
2022-10-26T00:41:04.039Z,58.77
2022-10-26T00:42:04.031Z,53.46
2022-10-26T00:43:04.049Z,55.41
2022-10-26T00:44:03.962Z,60.94
2022-10-26T00:45:04.033Z,58.86
2022-10-26T00:46:04.041Z,59.27
2022-10-26T00:47:03.939Z,54.50
2022-10-26T00:48:04.017Z,54.41
2022-10-26T00:49:03.973Z,53.19
2022-10-26T00:50:03.899Z,52.76
2022-10-26T00:51:03.968Z,50.92
2022-10-26T00:52:04.033Z,56.36
2022-10-26T00:53:03.879Z,52.91
2022-10-26T00:54:03.890Z,50.51
2022-10-26T00:55:03.872Z,57.03
2022-10-26T00:56:03.871Z,55.11
2022-10-26T00:57:03.969Z,52.76
2022-10-26T00:58:04.967Z,54.92
2022-10-26T00:59:03.921Z,60.51
2022-10-26T01:00:04.088Z,55.07
2022-10-26T01:01:03.958Z,55.73
2022-10-26T01:02:03.811Z,59.70
2022-10-26T01:03:03.973Z,53.87
2022-10-26T01:04:03.948Z,49.62
2022-10-26T01:05:03.824Z,51.77
2022-10-26T01:06:03.884Z,56.39
2022-10-26T01:07:03.963Z,57.35
2022-10-26T01:08:03.798Z,53.08
2022-10-26T01:09:03.959Z,56.02
2022-10-26T01:10:03.795Z,57.39
2022-10-26T01:11:03.767Z,52.10
2022-10-26T01:12:03.805Z,53.56
2022-10-26T01:13:03.811Z,56.46
2022-10-26T01:14:03.779Z,59.93
2022-10-26T01:15:03.724Z,53.44
2022-10-26T01:16:03.695Z,58.73
2022-10-26T01:18:04.677Z,59.73
2022-10-26T01:19:03.707Z,51.47
2022-10-26T01:20:03.706Z,51.81
2022-10-26T01:21:03.689Z,56.82
2022-10-26T01:22:03.787Z,57.85
2022-10-26T01:23:03.735Z,54.60
2022-10-26T01:24:03.767Z,52.14
2022-10-26T01:25:03.750Z,56.36
2022-10-26T01:26:03.753Z,54.42
2022-10-26T01:27:03.738Z,56.11
2022-10-26T01:28:03.726Z,55.94
2022-10-26T01:29:03.601Z,54.04
2022-10-26T01:30:03.780Z,55.11
2022-10-26T01:31:03.685Z,56.06
2022-10-26T01:32:03.601Z,59.78
2022-10-26T01:33:03.696Z,54.50
2022-10-26T01:34:03.664Z,55.99
2022-10-26T01:35:03.597Z,52.55
2022-10-26T01:36:03.668Z,54.24
2022-10-26T01:37:03.659Z,52.83
2022-10-26T01:38:03.551Z,57.16
2022-10-26T01:39:03.652Z,58.87
2022-10-26T01:40:03.712Z,56.15
2022-10-26T01:41:03.523Z,53.31
2022-10-26T01:42:03.680Z,54.06
2022-10-26T01:43:03.598Z,57.33
2022-10-26T01:44:03.519Z,49.99
2022-10-26T01:45:03.511Z,53.78
2022-10-26T01:46:03.660Z,59.18
2022-10-26T01:47:03.525Z,55.76
2022-10-26T01:48:03.593Z,57.03
2022-10-26T01:49:03.576Z,57.87
2022-10-26T01:50:03.566Z,60.66
2022-10-26T01:51:03.587Z,54.72
2022-10-26T01:52:03.526Z,54.55
2022-10-26T01:53:03.482Z,57.90
2022-10-26T01:54:03.552Z,50.28
2022-10-26T01:55:03.526Z,52.01
2022-10-26T01:56:03.446Z,57.03
2022-10-26T01:57:03.605Z,56.37
2022-10-26T01:58:03.510Z,58.88
2022-10-26T01:59:03.443Z,56.39
2022-10-26T02:00:03.514Z,55.74
2022-10-26T02:01:03.601Z,58.51
2022-10-26T02:02:03.630Z,60.25
2022-10-26T02:03:03.403Z,60.35
2022-10-26T02:04:03.524Z,53.43
2022-10-26T02:05:03.385Z,50.85
2022-10-26T02:06:03.359Z,55.67
2022-10-26T02:07:03.353Z,55.15
2022-10-26T02:08:03.419Z,53.50
2022-10-26T02:09:03.337Z,55.81
2022-10-26T02:10:03.333Z,60.38
2022-10-26T02:11:03.458Z,57.70
2022-10-26T02:12:03.335Z,61.61
2022-10-26T02:13:03.445Z,60.69
2022-10-26T02:14:03.448Z,55.13
2022-10-26T02:15:03.306Z,57.69
2022-10-26T02:16:03.402Z,50.62
2022-10-26T02:17:03.366Z,57.98
2022-10-26T02:18:03.271Z,54.60
2022-10-26T02:19:03.395Z,58.46
2022-10-26T02:20:03.357Z,59.77
2022-10-26T02:21:03.358Z,52.08
2022-10-26T02:22:03.363Z,54.79
2022-10-26T02:23:03.341Z,58.85
2022-10-26T02:24:03.357Z,59.99
2022-10-26T02:25:03.242Z,57.81
2022-10-26T02:26:03.321Z,55.38
2022-10-26T02:27:03.221Z,58.56
2022-10-26T02:28:03.229Z,56.47
2022-10-26T02:29:03.204Z,54.08
2022-10-26T02:30:03.254Z,53.34
2022-10-26T02:31:03.211Z,52.23
2022-10-26T02:32:03.182Z,52.74
2022-10-26T02:33:03.171Z,56.65
2022-10-26T02:34:03.294Z,55.54
2022-10-26T02:35:03.296Z,54.98
2022-10-26T02:36:03.180Z,56.25
2022-10-26T02:37:03.265Z,53.72
2022-10-26T02:38:03.229Z,54.91
2022-10-26T02:39:03.134Z,56.14
2022-10-26T02:40:03.231Z,56.90
2022-10-26T02:41:03.262Z,56.91
2022-10-26T02:42:03.095Z,55.52
2022-10-26T02:43:03.195Z,54.32
2022-10-26T02:44:03.223Z,56.31
2022-10-26T02:45:03.084Z,55.46
2022-10-26T02:46:03.223Z,57.09
2022-10-26T02:47:03.190Z,54.60
2022-10-26T02:48:03.083Z,55.97
2022-10-26T02:49:03.205Z,51.91
2022-10-26T02:50:03.062Z,55.79
2022-10-26T02:51:03.053Z,55.24
2022-10-26T02:52:03.116Z,54.72
2022-10-26T02:53:03.216Z,56.21
2022-10-26T02:54:03.173Z,58.08
2022-10-26T02:55:03.092Z,53.16
2022-10-26T02:56:03.084Z,55.61
2022-10-26T02:57:03.044Z,54.78
2022-10-26T02:58:03.097Z,54.80
2022-10-26T02:59:03.006Z,55.15
2022-10-26T03:00:03.041Z,56.54
2022-10-26T03:01:03.269Z,58.44
2022-10-26T03:02:03.100Z,56.20
2022-10-26T03:03:03.064Z,59.20
2022-10-26T03:04:03.098Z,55.89
2022-10-26T03:05:03.022Z,54.32
2022-10-26T03:06:02.937Z,55.88
2022-10-26T03:07:03.010Z,58.69
2022-10-26T03:08:03.324Z,59.47
2022-10-26T03:09:03.975Z,57.89
2022-10-26T03:10:02.980Z,55.86
2022-10-26T03:11:02.913Z,59.14
2022-10-26T03:12:02.888Z,59.45
2022-10-26T03:13:02.934Z,58.64
2022-10-26T03:14:03.000Z,58.16
2022-10-26T03:15:02.852Z,57.24
2022-10-26T03:16:02.856Z,58.67
2022-10-26T03:17:02.878Z,60.02
2022-10-26T03:18:02.859Z,58.65
2022-10-26T03:19:02.848Z,58.13
2022-10-26T03:20:02.875Z,56.52
2022-10-26T03:21:02.817Z,58.28
2022-10-26T06:14:02.250Z,60.99
2022-10-26T06:15:03.421Z,61.07
2022-10-26T06:16:03.296Z,62.01
2022-10-26T06:17:03.305Z,61.63
2022-10-26T06:18:03.333Z,63.20
2022-10-26T06:19:03.322Z,63.36
2022-10-26T06:20:03.424Z,61.79
2022-10-26T06:21:03.309Z,61.50
2022-10-26T06:22:03.377Z,62.85
2022-10-26T06:23:03.415Z,63.01
2022-10-26T06:24:03.336Z,64.09
2022-10-26T06:25:03.347Z,65.43
2022-10-26T06:26:03.326Z,64.68
2022-10-26T06:27:03.336Z,63.32
2022-10-26T06:28:03.341Z,62.67
2022-10-26T06:29:03.343Z,62.69
2022-10-26T06:30:03.369Z,61.09
2022-10-26T06:31:03.327Z,61.82
2022-10-26T06:32:03.365Z,62.56
2022-10-26T06:33:06.338Z,65.46
2022-10-26T06:34:05.366Z,63.65
2022-10-26T06:35:07.026Z,61.94
2022-10-26T06:36:04.185Z,61.59
2022-10-26T06:37:03.151Z,62.08
2022-10-26T06:38:03.272Z,61.02
2022-10-26T06:39:03.273Z,60.79
2022-10-26T06:40:03.215Z,60.42
2022-10-26T06:41:03.227Z,62.64
2022-10-26T06:42:03.231Z,62.46
2022-10-26T06:43:03.250Z,61.81
2022-10-26T06:44:03.231Z,61.93
2022-10-26T06:45:03.350Z,62.15
2022-10-26T06:46:03.188Z,60.14
2022-10-26T06:47:03.210Z,60.05
2022-10-26T06:48:03.190Z,58.83
2022-10-26T06:49:03.201Z,60.45
2022-10-26T06:50:03.182Z,59.39
2022-10-26T06:51:03.187Z,58.43
2022-10-26T06:52:03.152Z,60.32
2022-10-26T06:53:03.164Z,61.54
2022-10-26T06:54:03.060Z,62.61
2022-10-26T06:55:03.074Z,60.26
2022-10-26T06:56:03.063Z,59.87
2022-10-26T06:57:03.048Z,61.31
2022-10-26T06:58:03.019Z,60.79
2022-10-26T06:59:04.889Z,61.09
2022-10-26T07:00:02.998Z,59.23
2022-10-26T07:01:03.097Z,60.56
2022-10-26T07:02:05.774Z,60.92
2022-10-26T07:03:03.042Z,61.16
2022-10-26T07:04:03.102Z,61.06
2022-10-26T07:05:03.046Z,58.74
2022-10-26T07:06:03.114Z,58.95
2022-10-26T07:07:03.144Z,60.26
2022-10-26T07:08:03.050Z,62.79
2022-10-26T07:09:03.031Z,60.41
2022-10-26T07:10:03.033Z,61.05
2022-10-26T07:11:03.030Z,60.72
2022-10-26T07:12:03.069Z,58.44
2022-10-26T07:13:03.019Z,58.54
2022-10-26T07:14:02.978Z,59.91
2022-10-26T07:15:03.085Z,60.61
2022-10-26T07:16:03.022Z,61.11
2022-10-26T07:17:03.136Z,60.03
2022-10-26T07:18:03.119Z,59.06
2022-10-26T07:19:02.887Z,59.40
2022-10-26T07:20:02.908Z,59.37
2022-10-26T07:21:02.885Z,59.47
2022-10-26T07:22:02.878Z,58.73
2022-10-26T07:23:02.977Z,60.04
2022-10-26T07:24:02.855Z,59.31
2022-10-26T07:25:03.371Z,58.29
2022-10-26T07:26:02.859Z,60.81
2022-10-26T07:27:02.846Z,59.26
2022-10-26T07:28:02.863Z,61.97
2022-10-26T07:29:02.814Z,61.61
2022-10-26T07:30:03.916Z,60.41
2022-10-26T07:31:02.880Z,57.97
2022-10-26T07:32:02.907Z,58.68
2022-10-26T07:33:02.919Z,59.87
2022-10-26T07:34:02.925Z,61.14
2022-10-26T07:35:02.861Z,60.57
2022-10-26T07:36:02.905Z,62.21
2022-10-26T07:37:02.851Z,59.62
2022-10-26T07:38:02.866Z,60.21
2022-10-26T07:39:02.942Z,61.37
2022-10-26T07:40:06.436Z,58.99
2022-10-26T07:41:03.847Z,60.25
2022-10-26T07:42:02.833Z,57.79
2022-10-26T07:43:02.876Z,59.46
2022-10-26T07:44:02.897Z,62.41
2022-10-26T07:45:03.339Z,58.68
2022-10-26T07:46:02.858Z,60.98
2022-10-26T07:47:02.776Z,58.94
2022-10-26T07:48:02.728Z,59.91
2022-10-26T07:49:02.687Z,61.12
2022-10-26T07:50:02.709Z,60.51
2022-10-26T07:51:03.255Z,59.17
2022-10-26T07:52:03.642Z,59.93
2022-10-26T07:53:02.628Z,57.69
2022-10-26T07:54:02.746Z,60.99
2022-10-26T07:55:02.766Z,58.67
2022-10-26T07:56:02.654Z,59.32
2022-10-26T07:57:02.780Z,60.52
2022-10-26T07:58:02.733Z,60.35
2022-10-26T07:59:02.600Z,65.19
2022-10-26T08:00:02.725Z,61.43
2022-10-26T08:01:02.821Z,60.18
2022-10-26T08:02:02.627Z,58.86
2022-10-26T08:03:02.624Z,60.19
2022-10-26T08:04:02.747Z,65.96
2022-10-26T08:05:02.575Z,59.78
2022-10-26T08:06:02.805Z,60.63
2022-10-26T08:07:02.644Z,60.98
2022-10-26T08:08:02.636Z,61.07
2022-10-26T08:09:02.659Z,66.31
2022-10-26T08:10:02.641Z,61.12
2022-10-26T08:11:02.629Z,61.93
2022-10-26T08:12:02.645Z,60.94
2022-10-26T08:13:02.626Z,60.72
2022-10-26T08:14:02.642Z,64.03
2022-10-26T08:15:02.618Z,60.88
2022-10-26T08:16:02.672Z,60.59
2022-10-26T08:17:02.985Z,65.07
2022-10-26T08:18:02.564Z,59.88
2022-10-26T08:19:02.580Z,57.99
2022-10-26T08:20:02.609Z,61.30
2022-10-26T08:21:10.680Z,63.07
2022-10-26T08:22:03.796Z,62.73
2022-10-26T08:23:02.439Z,61.13
2022-10-26T08:24:02.435Z,59.48
2022-10-26T08:25:02.457Z,60.79
2022-10-26T08:26:02.514Z,61.53
2022-10-26T08:27:02.417Z,61.48
2022-10-26T08:28:02.633Z,63.91
2022-10-26T08:29:02.471Z,60.95
2022-10-26T08:30:02.470Z,59.46
2022-10-26T08:31:02.431Z,60.91
2022-10-26T08:32:02.431Z,65.70
2022-10-26T08:33:02.581Z,58.00
2022-10-26T08:34:02.613Z,59.01
2022-10-26T08:35:02.579Z,58.88
2022-10-26T08:36:02.656Z,60.12
2022-10-26T08:37:02.566Z,60.45
2022-10-26T08:38:02.489Z,58.98
2022-10-26T08:39:02.612Z,60.00
2022-10-26T08:40:03.454Z,61.30
2022-10-26T08:41:02.477Z,59.61
2022-10-26T08:42:02.441Z,60.82
2022-10-26T08:43:03.460Z,61.23
2022-10-26T08:44:02.520Z,66.11
2022-10-26T08:45:02.410Z,61.01
2022-10-26T08:46:02.524Z,59.72
2022-10-26T08:47:02.478Z,59.91
2022-10-26T08:48:02.413Z,61.59
2022-10-26T08:49:02.633Z,62.40
2022-10-26T08:50:02.386Z,59.80
2022-10-26T08:51:03.277Z,60.42
2022-10-26T08:52:02.331Z,61.36
2022-10-26T08:53:02.305Z,62.01
2022-10-26T08:54:02.277Z,63.58
2022-10-26T08:55:02.387Z,60.61
2022-10-26T08:56:02.391Z,60.13
2022-10-26T08:57:02.284Z,59.69
2022-10-26T08:58:02.267Z,58.64
2022-10-26T08:59:02.308Z,59.25
2022-10-26T09:00:02.306Z,59.18
2022-10-26T09:01:02.262Z,58.58
2022-10-26T09:02:02.378Z,58.61
2022-10-26T09:03:02.300Z,58.22
2022-10-26T09:05:03.482Z,59.09
2022-10-26T09:06:02.352Z,63.24
2022-10-26T09:07:03.298Z,62.93
2022-10-26T09:08:02.317Z,57.94
2022-10-26T09:09:06.156Z,57.07
2022-10-26T09:10:02.279Z,57.55
2022-10-26T09:11:02.301Z,60.06
2022-10-26T09:12:02.206Z,57.36
2022-10-26T09:13:02.190Z,59.08
2022-10-26T09:14:02.321Z,59.70
2022-10-26T09:15:02.179Z,61.05
2022-10-26T09:16:02.391Z,63.86
2022-10-26T09:17:02.211Z,58.18
2022-10-26T09:18:02.303Z,58.07
2022-10-26T09:19:03.037Z,65.76
2022-10-26T09:20:02.509Z,59.90
2022-10-26T09:21:02.242Z,60.06
2022-10-26T09:22:02.280Z,61.14
2022-10-26T09:23:02.289Z,67.07
2022-10-26T09:24:02.530Z,62.78
2022-10-26T09:25:05.420Z,60.26
2022-10-26T09:26:04.064Z,57.27
2022-10-26T09:27:02.111Z,61.54
2022-10-26T09:28:02.118Z,63.10
2022-10-26T09:29:02.087Z,56.96
2022-10-26T09:30:02.007Z,58.31
2022-10-26T09:31:02.107Z,57.54
2022-10-26T09:32:02.166Z,59.92
2022-10-26T09:33:02.208Z,59.73
2022-10-26T09:34:02.162Z,63.32
2022-10-26T09:35:02.088Z,57.09
2022-10-26T09:36:02.355Z,58.72
2022-10-26T09:37:02.232Z,57.52
2022-10-26T09:38:02.264Z,56.96
2022-10-26T09:39:02.150Z,59.95
2022-10-26T09:40:02.051Z,63.71
2022-10-26T09:41:02.125Z,59.91
2022-10-26T09:42:02.137Z,57.95
2022-10-26T09:43:01.997Z,59.82
2022-10-26T09:44:01.935Z,60.28
2022-10-26T09:45:01.910Z,59.74
2022-10-26T09:46:04.451Z,57.08
2022-10-26T09:47:01.944Z,59.18
2022-10-26T09:48:05.171Z,60.69
2022-10-26T09:50:01.978Z,59.70
2022-10-26T09:51:04.576Z,59.55
2022-10-26T09:52:03.035Z,60.57
2022-10-26T09:53:02.084Z,58.89
2022-10-26T09:54:01.983Z,59.91
2022-10-26T09:55:01.940Z,59.55
2022-10-26T09:56:01.955Z,62.66
2022-10-26T09:57:01.912Z,58.22
2022-10-26T09:58:02.027Z,67.07
2022-10-26T09:59:01.861Z,61.24
2022-10-26T10:00:01.950Z,62.87
2022-10-26T10:01:01.871Z,63.57
2022-10-26T10:02:02.018Z,59.18
2022-10-26T10:03:01.998Z,64.45
2022-10-26T10:04:01.995Z,61.28
2022-10-26T10:05:01.884Z,62.81
2022-10-26T10:06:01.952Z,66.31
2022-10-26T10:07:01.859Z,59.40
2022-10-26T10:08:01.920Z,64.69
2022-10-26T10:09:01.845Z,60.63
2022-10-26T10:10:01.838Z,60.85
2022-10-26T10:11:01.736Z,64.14
2022-10-26T10:12:01.681Z,59.29
2022-10-26T10:13:01.714Z,64.48
2022-10-26T10:14:01.806Z,61.64
2022-10-26T10:15:01.776Z,67.27
2022-10-26T10:16:01.702Z,59.11
2022-10-26T10:17:01.700Z,60.02
2022-10-26T10:18:01.737Z,67.23
2022-10-26T10:19:01.756Z,66.29
2022-10-26T10:20:01.780Z,66.20
2022-10-26T10:21:02.805Z,59.84
2022-10-26T10:22:01.764Z,59.74
2022-10-26T10:23:01.806Z,61.65
2022-10-26T10:24:01.828Z,66.49
2022-10-26T10:25:01.759Z,67.28
2022-10-26T10:26:02.128Z,59.89
2022-10-26T10:27:01.772Z,59.43
2022-10-26T10:28:01.759Z,57.58
2022-10-26T10:29:01.793Z,66.78
2022-10-26T10:30:04.247Z,66.87
2022-10-26T10:31:01.724Z,60.59
2022-10-26T10:32:01.817Z,59.63
2022-10-26T10:33:01.667Z,57.87
2022-10-26T10:34:01.669Z,60.78
2022-10-26T10:35:01.751Z,66.03
2022-10-26T10:36:01.684Z,61.49
2022-10-26T10:37:01.765Z,60.44
2022-10-26T10:38:01.616Z,60.41
2022-10-26T10:39:01.667Z,61.65
2022-10-26T10:40:01.536Z,65.84
2022-10-26T10:41:01.652Z,58.74
2022-10-26T10:42:01.598Z,59.71
2022-10-26T10:43:01.647Z,57.68
2022-10-26T10:44:01.515Z,59.91
2022-10-26T10:45:01.722Z,59.68
2022-10-26T10:46:01.720Z,64.34
2022-10-26T10:47:01.586Z,59.81
2022-10-26T10:48:01.708Z,58.71
2022-10-26T10:49:01.559Z,55.24
2022-10-26T10:50:01.650Z,57.70
2022-10-26T10:51:01.534Z,57.87
2022-10-26T10:52:01.598Z,59.04
2022-10-26T10:53:01.693Z,59.18
2022-10-26T10:54:01.950Z,58.31
2022-10-26T10:55:01.518Z,55.79
2022-10-26T10:56:01.540Z,57.68
2022-10-26T10:57:01.527Z,58.54
2022-10-26T10:58:01.635Z,57.47
2022-10-26T10:59:01.434Z,56.40
2022-10-26T11:00:01.551Z,56.38
2022-10-26T11:01:01.413Z,55.63
2022-10-26T11:02:01.712Z,57.06
2022-10-26T11:03:01.340Z,57.74
2022-10-26T11:04:01.407Z,55.53
2022-10-26T11:05:01.410Z,57.69
2022-10-26T11:06:01.641Z,58.24
2022-10-26T11:07:01.453Z,56.92
2022-10-26T11:08:01.440Z,55.57
2022-10-26T11:09:01.479Z,57.46
2022-10-26T11:10:01.440Z,57.24
2022-10-26T11:11:01.562Z,56.89
2022-10-26T11:12:01.495Z,55.69
2022-10-26T11:13:01.500Z,54.74
2022-10-26T11:14:01.385Z,55.51
2022-10-26T11:15:01.382Z,56.23
2022-10-26T11:16:01.558Z,56.11
2022-10-26T11:17:01.310Z,56.79
2022-10-26T11:18:02.345Z,56.78
2022-10-26T11:19:01.349Z,55.06
2022-10-26T11:20:01.364Z,56.75
2022-10-26T11:21:01.353Z,55.52
2022-10-26T11:22:01.307Z,54.31
2022-10-26T11:23:01.679Z,55.94
2022-10-26T11:24:01.405Z,56.99
2022-10-26T11:25:01.329Z,53.89
2022-10-26T11:26:01.358Z,53.51
2022-10-26T11:27:01.272Z,54.67
2022-10-26T11:28:01.233Z,55.90
2022-10-26T11:29:01.153Z,55.22
2022-10-26T11:30:01.134Z,54.79
2022-10-26T11:31:01.192Z,53.08
2022-10-26T11:32:01.258Z,55.18
2022-10-26T11:33:01.191Z,54.40
2022-10-26T11:34:01.229Z,56.28
2022-10-26T11:35:01.298Z,56.69
2022-10-26T11:36:01.183Z,54.57
2022-10-26T11:37:01.271Z,53.97
2022-10-26T11:38:01.556Z,54.88
2022-10-26T11:39:04.018Z,54.29
2022-10-26T11:40:03.156Z,54.49
2022-10-26T11:41:01.229Z,55.23
2022-10-26T11:42:01.514Z,55.36
2022-10-26T11:43:01.237Z,56.95
2022-10-26T11:44:01.199Z,53.92
2022-10-26T11:45:01.171Z,54.67
2022-10-26T11:46:01.171Z,52.82
2022-10-26T11:47:01.172Z,54.26
2022-10-26T11:48:01.170Z,54.14
2022-10-26T11:49:01.195Z,54.57
2022-10-26T11:50:01.156Z,54.73
2022-10-26T11:51:01.142Z,55.54
2022-10-26T11:52:01.095Z,55.23
2022-10-26T11:53:00.994Z,57.05
2022-10-26T11:54:01.065Z,55.70
2022-10-26T11:55:01.064Z,62.55
2022-10-26T11:56:00.988Z,56.29
2022-10-26T11:57:01.193Z,57.90
2022-10-26T11:58:01.100Z,63.58
2022-10-26T12:00:01.136Z,53.91
2022-10-26T12:01:01.072Z,52.36
2022-10-26T12:02:01.058Z,55.00
2022-10-26T12:03:01.113Z,53.98
2022-10-26T12:04:01.215Z,54.86
2022-10-26T12:05:01.055Z,54.99
2022-10-26T12:06:01.075Z,56.71
2022-10-26T12:07:00.999Z,56.38
2022-10-26T12:08:01.010Z,54.47
2022-10-26T12:09:01.072Z,58.28
2022-10-26T12:10:01.012Z,57.64
2022-10-26T12:11:01.100Z,56.50
2022-10-26T12:12:01.087Z,58.61
2022-10-26T12:13:01.037Z,58.61
2022-10-26T12:14:01.017Z,56.25
2022-10-26T12:15:00.935Z,56.97
2022-10-26T12:16:03.935Z,55.46
2022-10-26T12:17:01.845Z,54.81
2022-10-26T12:18:00.836Z,56.81
2022-10-26T12:19:00.837Z,56.07
2022-10-26T12:20:00.846Z,55.84
2022-10-26T12:21:00.848Z,56.01
2022-10-26T12:22:00.848Z,55.95
2022-10-26T12:23:00.824Z,56.13
2022-10-26T12:24:00.813Z,54.52
2022-10-26T12:25:00.855Z,56.20
2022-10-26T12:26:00.871Z,56.94
2022-10-26T12:27:01.292Z,57.03
2022-10-26T12:28:00.875Z,60.72
2022-10-26T12:29:00.880Z,55.67
2022-10-26T12:30:00.875Z,54.89
2022-10-26T12:31:00.847Z,53.61
2022-10-26T12:32:00.914Z,60.51
2022-10-26T12:33:00.896Z,60.10
2022-10-26T12:34:00.846Z,59.77
2022-10-26T12:35:00.836Z,56.43
2022-10-26T12:36:00.879Z,56.05
2022-10-26T12:37:00.821Z,54.77
2022-10-26T12:38:00.851Z,59.21
2022-10-26T12:39:00.888Z,58.21
2022-10-26T12:40:00.815Z,58.42
2022-10-26T12:41:00.719Z,57.47
2022-10-26T12:42:00.943Z,57.63
2022-10-26T12:43:00.715Z,57.29
2022-10-26T12:44:02.726Z,56.78
2022-10-26T12:45:00.605Z,57.23
2022-10-26T12:46:00.589Z,56.30
2022-10-26T12:47:00.620Z,56.15
2022-10-26T12:48:07.016Z,55.71
2022-10-26T12:49:02.582Z,56.63
2022-10-26T12:50:00.545Z,57.96
2022-10-26T12:51:00.653Z,57.25
2022-10-26T12:53:00.652Z,58.29
2022-10-26T12:54:00.741Z,58.37
2022-10-26T12:55:00.700Z,60.85
2022-10-26T12:56:00.628Z,58.49
2022-10-26T12:57:00.641Z,58.01
2022-10-26T12:58:00.496Z,60.05
2022-10-26T12:59:04.470Z,58.39
2022-10-26T13:00:01.667Z,59.23
2022-10-26T13:01:00.639Z,57.02
2022-10-26T13:02:00.591Z,58.41
2022-10-26T13:03:00.581Z,58.62
2022-10-26T13:04:00.577Z,59.92
2022-10-26T13:05:00.657Z,58.78
2022-10-26T13:06:00.565Z,57.34
2022-10-26T13:07:00.548Z,57.08
2022-10-26T13:08:00.527Z,57.03
2022-10-26T13:09:00.825Z,55.44
2022-10-26T13:10:00.555Z,57.05
2022-10-26T13:11:00.585Z,57.20
2022-10-26T13:12:00.523Z,57.08
2022-10-26T13:13:00.493Z,55.58
2022-10-26T13:14:00.504Z,57.20
2022-10-26T13:15:00.489Z,58.52
2022-10-26T13:16:00.435Z,57.52
2022-10-26T13:17:00.595Z,57.38
2022-10-26T13:18:00.477Z,56.01
2022-10-26T13:19:00.447Z,55.49
2022-10-26T13:20:00.355Z,55.28
2022-10-26T13:21:00.378Z,56.90
2022-10-26T13:22:00.428Z,58.79
2022-10-26T13:24:00.333Z,57.24
2022-10-26T13:25:00.320Z,56.56
2022-10-26T13:26:00.305Z,55.10
2022-10-26T13:27:00.436Z,54.94
2022-10-26T13:28:01.451Z,55.14
2022-10-26T13:29:00.312Z,53.52
2022-10-26T13:30:00.275Z,56.87
2022-10-26T13:31:00.379Z,54.11
2022-10-26T13:32:00.378Z,55.28
2022-10-26T13:33:00.629Z,55.49
2022-10-26T13:34:00.319Z,54.76
2022-10-26T13:35:00.359Z,55.37
2022-10-26T13:36:00.318Z,54.01
2022-10-26T13:37:01.349Z,55.05
2022-10-26T13:38:00.332Z,56.05
2022-10-26T13:39:00.306Z,56.48
2022-10-26T13:40:00.419Z,56.91
2022-10-26T13:41:00.333Z,56.37
2022-10-26T13:42:00.332Z,56.36
2022-10-26T13:43:00.389Z,55.14
2022-10-26T13:44:00.319Z,55.82
2022-10-26T13:45:00.426Z,56.44
2022-10-26T13:46:00.355Z,55.00
2022-10-26T13:47:00.334Z,53.34
2022-10-26T13:48:00.733Z,57.10
2022-10-26T13:49:00.291Z,55.42
2022-10-26T13:50:00.384Z,54.55
2022-10-26T13:51:00.254Z,56.86
2022-10-26T13:52:00.579Z,53.93
2022-10-26T13:53:00.292Z,57.68
2022-10-26T13:54:00.523Z,56.32
2022-10-26T13:55:00.451Z,55.73
2022-10-26T13:56:00.333Z,54.45
2022-10-26T13:57:00.139Z,53.53
2022-10-26T13:58:00.197Z,52.78
2022-10-26T13:59:00.169Z,53.86
2022-10-26T14:00:03.900Z,52.40
2022-10-26T14:01:01.155Z,58.17
2022-10-26T14:02:00.105Z,56.27
2022-10-26T14:03:00.132Z,55.24
2022-10-26T14:04:00.201Z,54.24
2022-10-26T14:05:00.253Z,54.19
2022-10-26T14:06:00.181Z,51.24
2022-10-26T14:07:00.209Z,52.99
2022-10-26T14:08:00.248Z,51.80
2022-10-26T14:09:00.151Z,52.59
2022-10-26T14:10:00.133Z,52.96
2022-10-26T14:11:00.135Z,53.33
2022-10-26T14:12:00.044Z,55.15
2022-10-26T14:13:00.118Z,53.20
2022-10-26T14:14:00.060Z,51.10
2022-10-26T14:15:00.072Z,54.32
2022-10-26T14:16:00.151Z,54.69
2022-10-26T14:17:00.027Z,52.98
2022-10-26T14:18:00.062Z,53.98
2022-10-26T14:19:00.021Z,52.78
2022-10-26T14:19:59.945Z,52.17
2022-10-26T14:20:59.953Z,53.15
2022-10-26T14:21:59.998Z,54.12
2022-10-26T14:22:59.923Z,54.84
2022-10-26T14:23:59.903Z,53.78
2022-10-26T14:24:59.916Z,55.00
2022-10-26T14:25:59.927Z,52.55
2022-10-26T14:26:59.895Z,52.35
2022-10-26T14:27:59.863Z,51.72
2022-10-26T14:28:59.931Z,51.49
2022-10-26T14:30:24.241Z,52.50
2022-10-26T14:31:02.044Z,52.87
2022-10-26T14:31:59.840Z,52.61
2022-10-26T14:32:59.919Z,54.02
2022-10-26T14:33:59.913Z,53.97
2022-10-26T14:34:59.901Z,53.00
2022-10-26T14:35:59.977Z,54.69
2022-10-26T14:37:00.109Z,55.29
2022-10-26T14:37:59.912Z,53.19
2022-10-26T14:38:59.879Z,55.08
2022-10-26T14:39:59.887Z,56.60
2022-10-26T14:40:59.992Z,53.67
2022-10-26T14:42:00.226Z,52.36
2022-10-26T14:42:59.884Z,56.83
2022-10-26T14:43:59.874Z,54.78
2022-10-26T14:44:59.843Z,55.91
2022-10-26T14:46:00.243Z,56.18
2022-10-26T14:46:59.803Z,54.84
2022-10-26T14:48:00.104Z,52.37
2022-10-26T14:48:59.938Z,54.17
2022-10-26T14:50:59.781Z,54.69
2022-10-26T14:51:59.724Z,56.14
2022-10-26T14:52:59.888Z,56.09
2022-10-26T14:54:00.097Z,56.50
2022-10-26T14:55:00.000Z,54.76
2022-10-26T14:55:59.897Z,55.46
2022-10-26T14:56:59.756Z,54.92
2022-10-26T14:57:59.882Z,56.55
2022-10-26T14:59:00.090Z,55.97
2022-10-26T14:59:59.948Z,53.58
2022-10-26T15:00:59.900Z,54.28
2022-10-26T15:01:59.951Z,56.55
2022-10-26T15:02:59.714Z,56.24
2022-10-26T15:03:59.732Z,55.12
2022-10-26T15:04:59.921Z,55.86
2022-10-26T15:05:59.710Z,56.03
2022-10-26T15:06:59.623Z,55.24
2022-10-26T15:07:59.589Z,56.09
2022-10-26T15:09:00.045Z,57.44
2022-10-26T15:09:59.770Z,57.69
2022-10-26T15:11:00.106Z,56.88
2022-10-26T15:11:59.636Z,56.16
2022-10-26T15:12:59.747Z,58.00
2022-10-26T15:13:59.661Z,55.85
2022-10-26T15:15:02.933Z,57.80
2022-10-26T15:16:00.700Z,55.88
2022-10-26T15:16:59.683Z,56.99
2022-10-26T15:17:59.633Z,58.11
2022-10-26T15:18:59.575Z,57.58
2022-10-26T15:19:59.633Z,58.20
2022-10-26T15:20:59.634Z,57.34
2022-10-26T15:21:59.526Z,57.52
2022-10-26T15:22:59.532Z,57.28
2022-10-26T15:23:59.472Z,58.79
2022-10-26T15:24:59.514Z,57.78
2022-10-26T15:25:59.676Z,57.15
2022-10-26T15:26:59.451Z,58.24
2022-10-26T15:27:59.521Z,58.36
2022-10-26T15:29:00.045Z,58.34
2022-10-26T15:29:59.467Z,56.73
2022-10-26T15:31:01.247Z,58.31
2022-10-26T15:32:00.612Z,59.23
2022-10-26T15:32:59.657Z,58.43
2022-10-26T15:33:59.611Z,58.08
2022-10-26T15:34:59.520Z,57.70
2022-10-26T15:35:59.569Z,57.32
2022-10-26T15:36:59.818Z,58.86
2022-10-26T15:38:00.047Z,60.91
2022-10-26T15:39:00.058Z,59.11
2022-10-26T15:40:00.254Z,58.45
2022-10-26T15:40:59.801Z,59.51
2022-10-26T15:41:59.935Z,57.77
2022-10-26T15:42:59.614Z,59.59
2022-10-26T15:43:59.762Z,57.75
2022-10-26T15:44:59.450Z,59.21
2022-10-26T15:45:59.647Z,57.71
2022-10-26T15:46:59.450Z,57.58
2022-10-26T15:48:00.096Z,58.77
2022-10-26T15:48:59.627Z,56.25
2022-10-26T15:49:59.409Z,58.13
2022-10-26T15:50:59.284Z,58.40